createdAt,value
2017-04-15T00:00:18.045Z,0
2017-04-15T00:01:18.111Z,0
2017-04-15T00:02:18.084Z,0
2017-04-15T00:03:18.131Z,0
2017-04-15T00:04:18.129Z,0
2017-04-15T00:05:18.238Z,0
2017-04-15T00:06:18.200Z,0
2017-04-15T00:07:18.242Z,0
2017-04-15T00:08:18.249Z,0
2017-04-15T00:09:18.298Z,0
2017-04-15T00:10:18.322Z,0
2017-04-15T00:11:18.355Z,0
2017-04-15T00:12:18.384Z,0
2017-04-15T00:13:18.414Z,0
2017-04-15T00:14:18.443Z,0
2017-04-15T00:15:18.469Z,0
2017-04-15T00:16:18.492Z,0
2017-04-15T00:17:18.529Z,0
2017-04-15T00:18:18.562Z,0
2017-04-15T00:19:18.578Z,0
2017-04-15T00:20:18.611Z,0
2017-04-15T00:21:18.641Z,0
2017-04-15T00:22:18.684Z,0
2017-04-15T00:23:18.713Z,0
2017-04-15T00:24:18.752Z,0
2017-04-15T00:25:18.753Z,0
2017-04-15T00:26:18.783Z,0
2017-04-15T00:27:18.833Z,0
2017-04-15T00:28:18.860Z,0
2017-04-15T00:29:18.870Z,0
2017-04-15T00:30:18.921Z,0
2017-04-15T00:31:18.950Z,0
2017-04-15T00:32:18.971Z,0
2017-04-15T00:33:19.101Z,0
2017-04-15T00:34:19.175Z,0
2017-04-15T00:35:19.162Z,0
2017-04-15T00:36:19.093Z,0
2017-04-15T00:37:19.104Z,0
2017-04-15T00:38:19.154Z,0
2017-04-15T00:39:19.166Z,0
2017-04-15T00:40:19.203Z,0
2017-04-15T00:41:19.231Z,0
2017-04-15T00:42:19.291Z,0
2017-04-15T00:43:19.448Z,0
2017-04-15T00:44:19.323Z,0
2017-04-15T00:45:19.362Z,0
2017-04-15T00:46:19.395Z,0
2017-04-15T00:47:19.408Z,0
2017-04-15T00:48:19.449Z,0
2017-04-15T00:49:19.479Z,0
2017-04-15T00:50:19.610Z,0
2017-04-15T00:51:19.534Z,0
2017-04-15T00:53:19.595Z,0
2017-04-15T00:54:19.626Z,0
2017-04-15T00:55:19.651Z,0
2017-04-15T00:56:19.683Z,0
2017-04-15T00:57:19.709Z,0
2017-04-15T00:58:19.747Z,0
2017-04-15T00:59:19.779Z,0
2017-04-15T01:00:19.815Z,0
2017-04-15T01:01:19.818Z,0
2017-04-15T01:02:19.891Z,0
2017-04-15T01:03:19.886Z,0
2017-04-15T01:04:19.913Z,0
2017-04-15T01:05:20.057Z,0
2017-04-15T01:06:19.967Z,0
2017-04-15T01:07:20.017Z,0
2017-04-15T01:08:20.011Z,0
2017-04-15T01:09:20.062Z,0
2017-04-15T01:10:20.093Z,0
2017-04-15T01:11:20.110Z,0
2017-04-15T01:12:20.151Z,0
2017-04-15T01:13:20.184Z,0
2017-04-15T01:14:20.235Z,0
2017-04-15T01:15:20.591Z,0
2017-04-15T01:16:20.273Z,0
2017-04-15T01:17:20.302Z,0
2017-04-15T01:18:20.333Z,0
2017-04-15T01:19:20.367Z,0
2017-04-15T01:20:20.492Z,0
2017-04-15T01:21:20.412Z,0
2017-04-15T01:22:20.450Z,0
2017-04-15T01:23:20.462Z,0
2017-04-15T01:24:20.516Z,0
2017-04-15T01:25:20.685Z,0
2017-04-15T01:26:20.568Z,0
2017-04-15T01:27:20.600Z,0
2017-04-15T01:28:20.760Z,0
2017-04-15T01:29:20.666Z,0
2017-04-15T01:30:20.816Z,0
2017-04-15T01:31:20.738Z,0
2017-04-15T01:32:20.760Z,0
2017-04-15T01:33:20.782Z,0
2017-04-15T01:34:20.809Z,0
2017-04-15T01:35:20.811Z,0
2017-04-15T01:36:20.866Z,0
2017-04-15T01:37:20.891Z,0
2017-04-15T01:38:20.935Z,0
2017-04-15T01:39:20.939Z,0
2017-04-15T01:40:20.985Z,0
2017-04-15T01:41:21.021Z,0
2017-04-15T01:42:21.033Z,0
2017-04-15T01:43:21.057Z,0
2017-04-15T01:44:21.104Z,0
2017-04-15T01:45:21.137Z,0
2017-04-15T01:46:21.145Z,0
2017-04-15T01:47:21.218Z,0
2017-04-15T01:48:21.205Z,0
2017-04-15T01:49:21.250Z,0
2017-04-15T01:50:21.278Z,0
2017-04-15T01:51:21.317Z,0
2017-04-15T01:52:21.336Z,0
2017-04-15T01:53:21.377Z,0
2017-04-15T01:54:21.406Z,0
2017-04-15T01:55:21.434Z,0
2017-04-15T01:56:21.480Z,0
2017-04-15T01:57:21.488Z,0
2017-04-15T01:58:21.510Z,0
2017-04-15T01:59:21.558Z,0
2017-04-15T02:00:21.583Z,0
2017-04-15T02:01:21.598Z,0
2017-04-15T02:02:21.635Z,0
2017-04-15T02:03:21.684Z,0
2017-04-15T02:04:21.691Z,0
2017-04-15T02:05:21.741Z,0
2017-04-15T02:06:21.750Z,0
2017-04-15T02:07:21.783Z,0
2017-04-15T02:08:21.814Z,0
2017-04-15T02:09:21.858Z,0
2017-04-15T02:10:21.878Z,0
2017-04-15T02:11:21.903Z,0
2017-04-15T02:12:21.937Z,0
2017-04-15T02:13:21.979Z,0
2017-04-15T02:14:21.985Z,0
2017-04-15T02:15:22.021Z,0
2017-04-15T02:16:22.050Z,0
2017-04-15T02:17:22.074Z,0
2017-04-15T02:18:22.111Z,0
2017-04-15T02:19:22.138Z,0
2017-04-15T02:20:22.161Z,0
2017-04-15T02:21:22.183Z,0
2017-04-15T02:22:22.236Z,0
2017-04-15T02:23:22.258Z,0
2017-04-15T02:24:22.577Z,0
2017-04-15T02:25:22.331Z,0
2017-04-15T02:26:22.346Z,0
2017-04-15T02:27:22.378Z,0
2017-04-15T02:28:22.405Z,0
2017-04-15T02:29:22.435Z,0
2017-04-15T02:30:22.467Z,0
2017-04-15T02:31:22.495Z,0
2017-04-15T02:32:22.528Z,0
2017-04-15T02:33:22.610Z,0
2017-04-15T02:34:22.586Z,0
2017-04-15T02:35:22.607Z,0
2017-04-15T02:36:22.643Z,0
2017-04-15T02:37:22.674Z,0
2017-04-15T02:38:22.717Z,0
2017-04-15T02:39:22.732Z,0
2017-04-15T02:40:22.766Z,0
2017-04-15T02:41:22.784Z,0
2017-04-15T02:42:22.825Z,0
2017-04-15T02:43:22.844Z,0
2017-04-15T02:44:22.881Z,0
2017-04-15T02:45:22.905Z,0
2017-04-15T02:46:22.936Z,0
2017-04-15T02:47:22.964Z,0
2017-04-15T02:48:22.984Z,0
2017-04-15T02:49:23.030Z,0
2017-04-15T02:50:23.049Z,0
2017-04-15T02:51:23.277Z,0
2017-04-15T02:52:23.120Z,0
2017-04-15T02:53:23.170Z,0
2017-04-15T02:54:23.169Z,0
2017-04-15T02:55:23.288Z,0
2017-04-15T02:56:23.231Z,0
2017-04-15T02:57:23.253Z,0
2017-04-15T02:58:23.287Z,0
2017-04-15T02:59:23.312Z,0
2017-04-15T03:00:23.482Z,0
2017-04-15T03:01:23.376Z,0
2017-04-15T03:02:23.404Z,0
2017-04-15T03:03:23.432Z,0
2017-04-15T03:04:23.465Z,0
2017-04-15T03:05:23.485Z,0
2017-04-15T03:06:23.516Z,0
2017-04-15T03:07:23.554Z,0
2017-04-15T03:08:23.583Z,0
2017-04-15T03:09:23.603Z,0
2017-04-15T03:10:23.633Z,0
2017-04-15T03:11:23.679Z,0
2017-04-15T03:12:23.686Z,0
2017-04-15T03:13:23.726Z,0
2017-04-15T03:14:23.762Z,0
2017-04-15T03:15:23.781Z,0
2017-04-15T03:16:23.816Z,0
2017-04-15T03:17:23.845Z,0
2017-04-15T03:18:23.865Z,0
2017-04-15T03:19:23.902Z,0
2017-04-15T03:20:23.931Z,0
2017-04-15T03:21:23.961Z,0
2017-04-15T03:22:23.982Z,0
2017-04-15T03:23:24.014Z,0
2017-04-15T03:24:24.052Z,0
2017-04-15T03:25:24.074Z,0
2017-04-15T03:26:24.303Z,0
2017-04-15T03:27:24.126Z,0
2017-04-15T03:28:24.158Z,0
2017-04-15T03:29:24.207Z,0
2017-04-15T03:30:24.227Z,0
2017-04-15T03:31:24.237Z,0
2017-04-15T03:32:24.275Z,0
2017-04-15T03:33:24.334Z,0
2017-04-15T03:34:24.372Z,0
2017-04-15T03:35:24.364Z,0
2017-04-15T03:36:24.385Z,0
2017-04-15T03:37:24.421Z,0
2017-04-15T03:38:24.452Z,0
2017-04-15T03:39:24.485Z,4
2017-04-15T03:40:24.495Z,4
2017-04-15T03:41:24.540Z,0
2017-04-15T03:42:24.568Z,4
2017-04-15T03:43:24.602Z,4
2017-04-15T03:44:24.785Z,4
2017-04-15T03:45:24.683Z,4
2017-04-15T03:46:24.675Z,4
2017-04-15T03:47:24.709Z,8
2017-04-15T03:48:24.750Z,8
2017-04-15T03:49:24.780Z,8
2017-04-15T03:50:24.784Z,12
2017-04-15T03:51:24.844Z,12
2017-04-15T03:52:24.848Z,16
2017-04-15T03:53:25.092Z,16
2017-04-15T03:54:24.911Z,16
2017-04-15T03:55:24.941Z,20
2017-04-15T03:56:24.961Z,20
2017-04-15T03:57:24.998Z,28
2017-04-15T03:58:25.034Z,32
2017-04-15T03:59:25.045Z,36
2017-04-15T04:00:25.246Z,40
2017-04-15T04:01:25.112Z,44
2017-04-15T04:02:25.304Z,48
2017-04-15T04:03:25.159Z,56
2017-04-15T04:04:25.195Z,64
2017-04-15T04:05:25.329Z,68
2017-04-15T04:06:25.239Z,76
2017-04-15T04:07:25.283Z,80
2017-04-15T04:08:25.312Z,92
2017-04-15T04:09:25.346Z,100
2017-04-15T04:10:25.386Z,112
2017-04-15T04:11:25.415Z,120
2017-04-15T04:12:25.435Z,132
2017-04-15T04:13:25.472Z,140
2017-04-15T04:14:25.486Z,152
2017-04-15T04:15:25.514Z,168
2017-04-15T04:16:25.544Z,184
2017-04-15T04:17:25.556Z,196
2017-04-15T04:18:25.597Z,212
2017-04-15T04:19:25.811Z,232
2017-04-15T04:20:25.639Z,248
2017-04-15T04:21:25.683Z,272
2017-04-15T04:22:25.720Z,296
2017-04-15T04:23:25.739Z,324
2017-04-15T04:24:25.764Z,352
2017-04-15T04:25:25.796Z,384
2017-04-15T04:26:25.819Z,420
2017-04-15T04:27:25.959Z,456
2017-04-15T04:28:25.885Z,492
2017-04-15T04:29:25.897Z,528
2017-04-15T04:30:25.936Z,564
2017-04-15T04:31:25.950Z,592
2017-04-15T04:32:25.998Z,620
2017-04-15T04:33:26.036Z,644
2017-04-15T04:34:26.060Z,668
2017-04-15T04:35:26.076Z,696
2017-04-15T04:36:26.368Z,724
2017-04-15T04:37:26.360Z,752
2017-04-15T04:38:26.155Z,784
2017-04-15T04:39:26.198Z,808
2017-04-15T04:40:26.477Z,836
2017-04-15T04:41:26.259Z,876
2017-04-15T04:42:26.277Z,924
2017-04-15T04:43:26.306Z,972
2017-04-15T04:44:26.343Z,1028
2017-04-15T04:45:26.600Z,1100
2017-04-15T04:46:26.398Z,1172
2017-04-15T04:47:26.426Z,1240
2017-04-15T04:48:26.451Z,1300
2017-04-15T04:49:26.480Z,1352
2017-04-15T04:50:26.618Z,1384
2017-04-15T04:51:26.530Z,1404
2017-04-15T04:52:26.565Z,1424
2017-04-15T04:53:26.603Z,1452
2017-04-15T04:54:26.618Z,1496
2017-04-15T04:55:26.758Z,1556
2017-04-15T04:56:26.681Z,1612
2017-04-15T04:57:26.723Z,1668
2017-04-15T04:58:26.734Z,1716
2017-04-15T04:59:26.761Z,1756
2017-04-15T05:00:26.785Z,1772
2017-04-15T05:01:26.828Z,1768
2017-04-15T05:02:26.828Z,1768
2017-04-15T05:03:27.066Z,1768
2017-04-15T05:04:26.911Z,1776
2017-04-15T05:05:26.934Z,1768
2017-04-15T05:06:26.970Z,1748
2017-04-15T05:07:27.039Z,1720
2017-04-15T05:08:27.043Z,1688
2017-04-15T05:09:27.061Z,1664
2017-04-15T05:10:27.091Z,1656
2017-04-15T05:11:27.119Z,1656
2017-04-15T05:12:27.197Z,1660
2017-04-15T05:13:27.182Z,1664
2017-04-15T05:14:27.220Z,1668
2017-04-15T05:15:27.238Z,1672
2017-04-15T05:16:27.262Z,1688
2017-04-15T05:17:27.290Z,1720
2017-04-15T05:18:27.331Z,1772
2017-04-15T05:19:27.357Z,1840
2017-04-15T05:20:27.461Z,1912
2017-04-15T05:21:27.400Z,1968
2017-04-15T05:22:27.439Z,2000
2017-04-15T05:23:27.481Z,2012
2017-04-15T05:24:27.498Z,2024
2017-04-15T05:25:27.529Z,2040
2017-04-15T05:26:27.545Z,2084
2017-04-15T05:27:27.592Z,2152
2017-04-15T05:28:27.619Z,2232
2017-04-15T05:29:27.662Z,2312
2017-04-15T05:30:27.672Z,2380
2017-04-15T05:31:27.712Z,2420
2017-04-15T05:32:27.760Z,2428
2017-04-15T05:33:27.767Z,2436
2017-04-15T05:34:27.815Z,2448
2017-04-15T05:35:27.837Z,2464
2017-04-15T05:36:27.854Z,2460
2017-04-15T05:37:27.886Z,2440
2017-04-15T05:38:27.917Z,2420
2017-04-15T05:39:27.945Z,2400
2017-04-15T05:40:27.971Z,2368
2017-04-15T05:41:28.005Z,2320
2017-04-15T05:42:28.045Z,2248
2017-04-15T05:43:28.062Z,2148
2017-04-15T05:44:28.098Z,2040
2017-04-15T05:45:28.132Z,1952
2017-04-15T05:46:28.157Z,1904
2017-04-15T05:47:28.181Z,1884
2017-04-15T05:48:28.231Z,1900
2017-04-15T05:49:28.247Z,1964
2017-04-15T05:50:28.271Z,2072
2017-04-15T05:51:28.292Z,2224
2017-04-15T05:52:28.336Z,2424
2017-04-15T05:53:28.363Z,2644
2017-04-15T05:54:28.402Z,2840
2017-04-15T05:55:28.443Z,2976
2017-04-15T05:56:28.448Z,3028
2017-04-15T05:57:28.496Z,2996
2017-04-15T05:58:28.516Z,2920
2017-04-15T05:59:28.599Z,2816
2017-04-15T06:00:28.755Z,2696
2017-04-15T06:01:28.607Z,2576
2017-04-15T06:02:28.644Z,2444
2017-04-15T06:03:28.681Z,2308
2017-04-15T06:04:28.694Z,2168
2017-04-15T06:05:28.712Z,2080
2017-04-15T06:06:28.759Z,2044
2017-04-15T06:07:28.797Z,2032
2017-04-15T06:08:28.933Z,1996
2017-04-15T06:09:28.842Z,1924
2017-04-15T06:10:28.974Z,1844
2017-04-15T06:11:28.896Z,1784
2017-04-15T06:12:28.920Z,1764
2017-04-15T06:13:28.964Z,1784
2017-04-15T06:14:28.995Z,1840
2017-04-15T06:15:29.023Z,1912
2017-04-15T06:16:29.064Z,1932
2017-04-15T06:17:29.089Z,1904
2017-04-15T06:18:29.108Z,1828
2017-04-15T06:19:29.159Z,1748
2017-04-15T06:20:29.169Z,1676
2017-04-15T06:21:29.210Z,1632
2017-04-15T06:22:29.234Z,1620
2017-04-15T06:23:29.245Z,1604
2017-04-15T06:24:29.347Z,1596
2017-04-15T06:25:29.329Z,1592
2017-04-15T06:26:29.360Z,1596
2017-04-15T06:27:29.370Z,1604
2017-04-15T06:28:29.443Z,1580
2017-04-15T06:29:29.444Z,1552
2017-04-15T06:30:29.872Z,1524
2017-04-15T06:31:29.484Z,1548
2017-04-15T06:32:29.539Z,1636
2017-04-15T06:33:29.566Z,1744
2017-04-15T06:34:29.595Z,1860
2017-04-15T06:35:29.629Z,1940
2017-04-15T06:36:29.680Z,1948
2017-04-15T06:37:29.670Z,1892
2017-04-15T06:38:29.705Z,1836
2017-04-15T06:39:29.761Z,1852
2017-04-15T06:40:29.777Z,1932
2017-04-15T06:41:29.800Z,1984
2017-04-15T06:42:29.833Z,2056
2017-04-15T06:43:29.877Z,2112
2017-04-15T06:44:29.893Z,2048
2017-04-15T06:45:29.916Z,1920
2017-04-15T06:46:29.946Z,1844
2017-04-15T06:47:29.974Z,1804
2017-04-15T06:48:30.022Z,1724
2017-04-15T06:49:30.043Z,1652
2017-04-15T06:50:30.060Z,1616
2017-04-15T06:51:30.095Z,1600
2017-04-15T06:52:30.134Z,1612
2017-04-15T06:53:30.143Z,1648
2017-04-15T06:54:30.182Z,1720
2017-04-15T06:55:30.217Z,1852
2017-04-15T06:56:30.310Z,1952
2017-04-15T06:57:30.279Z,1992
2017-04-15T06:58:30.309Z,1956
2017-04-15T06:59:30.328Z,1944
2017-04-15T07:00:30.424Z,1984
2017-04-15T07:01:30.399Z,2144
2017-04-15T07:02:30.425Z,2344
2017-04-15T07:03:30.453Z,2204
2017-04-15T07:04:30.499Z,2072
2017-04-15T07:05:30.502Z,2256
2017-04-15T07:06:30.541Z,2256
2017-04-15T07:07:30.554Z,2428
2017-04-15T07:08:30.611Z,3032
2017-04-15T07:09:30.630Z,3716
2017-04-15T07:10:30.669Z,3872
2017-04-15T07:11:30.705Z,3856
2017-04-15T07:12:30.729Z,3752
2017-04-15T07:13:30.761Z,3444
2017-04-15T07:14:30.797Z,3100
2017-04-15T07:15:30.812Z,2764
2017-04-15T07:16:30.843Z,2568
2017-04-15T07:17:30.877Z,2304
2017-04-15T07:18:30.901Z,2176
2017-04-15T07:19:31.073Z,2660
2017-04-15T07:20:31.155Z,3376
2017-04-15T07:21:30.993Z,4244
2017-04-15T07:22:31.024Z,4568
2017-04-15T07:23:31.060Z,4452
2017-04-15T07:24:31.098Z,3684
2017-04-15T07:25:31.108Z,3360
2017-04-15T07:26:31.155Z,3216
2017-04-15T07:27:31.175Z,2800
2017-04-15T07:28:31.232Z,2504
2017-04-15T07:29:31.233Z,2336
2017-04-15T07:30:31.251Z,2372
2017-04-15T07:31:31.298Z,2244
2017-04-15T07:32:31.325Z,2256
2017-04-15T07:33:31.370Z,2332
2017-04-15T07:34:31.392Z,2528
2017-04-15T07:35:31.408Z,2676
2017-04-15T07:36:31.451Z,2548
2017-04-15T07:37:31.475Z,2352
2017-04-15T07:38:31.506Z,2304
2017-04-15T07:39:31.535Z,2540
2017-04-15T07:40:31.575Z,2792
2017-04-15T07:41:31.595Z,2752
2017-04-15T07:42:31.633Z,2348
2017-04-15T07:43:31.664Z,1948
2017-04-15T07:44:31.713Z,1956
2017-04-15T07:45:31.712Z,1844
2017-04-15T07:46:31.750Z,1948
2017-04-15T07:47:31.758Z,2100
2017-04-15T07:48:31.808Z,2428
2017-04-15T07:49:31.844Z,2704
2017-04-15T07:50:31.891Z,2740
2017-04-15T07:51:31.900Z,2800
2017-04-15T07:52:31.930Z,2796
2017-04-15T07:53:31.960Z,2904
2017-04-15T07:54:31.989Z,3184
2017-04-15T07:55:32.004Z,3372
2017-04-15T07:56:32.050Z,2628
2017-04-15T07:57:32.053Z,2416
2017-04-15T07:58:32.115Z,2372
2017-04-15T07:59:32.140Z,2264
2017-04-15T08:00:32.159Z,2264
2017-04-15T08:01:32.237Z,2432
2017-04-15T08:02:32.229Z,2780
2017-04-15T08:03:32.244Z,2968
2017-04-15T08:04:32.292Z,2816
2017-04-15T08:05:32.300Z,2404
2017-04-15T08:06:32.346Z,2088
2017-04-15T08:07:32.395Z,2060
2017-04-15T08:08:32.408Z,2080
2017-04-15T08:09:32.511Z,2256
2017-04-15T08:10:32.452Z,2468
2017-04-15T08:11:32.509Z,2608
2017-04-15T08:12:32.525Z,2864
2017-04-15T08:13:32.553Z,2656
2017-04-15T08:14:32.587Z,2480
2017-04-15T08:15:32.625Z,2628
2017-04-15T08:16:32.656Z,2624
2017-04-15T08:17:32.711Z,2548
2017-04-15T08:18:32.707Z,2388
2017-04-15T08:19:32.758Z,2404
2017-04-15T08:20:32.766Z,2676
2017-04-15T08:21:32.807Z,2784
2017-04-15T08:22:32.879Z,2864
2017-04-15T08:23:32.854Z,2644
2017-04-15T08:24:32.897Z,2968
2017-04-15T08:25:32.935Z,3904
2017-04-15T08:26:32.949Z,3988
2017-04-15T08:27:32.985Z,2616
2017-04-15T08:28:33.019Z,2156
2017-04-15T08:29:33.052Z,2208
2017-04-15T08:30:33.072Z,2404
2017-04-15T08:31:33.104Z,2752
2017-04-15T08:32:33.111Z,3536
2017-04-15T08:33:33.162Z,4212
2017-04-15T08:34:33.199Z,4340
2017-04-15T08:35:33.205Z,4460
2017-04-15T08:36:33.254Z,4944
2017-04-15T08:37:33.290Z,5024
2017-04-15T08:38:33.305Z,5092
2017-04-15T08:39:33.347Z,4840
2017-04-15T08:40:33.385Z,5012
2017-04-15T08:41:33.404Z,5812
2017-04-15T08:42:33.438Z,6120
2017-04-15T08:43:33.472Z,6000
2017-04-15T08:44:33.506Z,5844
2017-04-15T08:45:33.525Z,5800
2017-04-15T08:46:33.553Z,5684
2017-04-15T08:47:33.599Z,5480
2017-04-15T08:48:33.602Z,5160
2017-04-15T08:49:33.648Z,5320
2017-04-15T08:50:33.849Z,6176
2017-04-15T08:51:33.712Z,7116
2017-04-15T08:52:33.730Z,7128
2017-04-15T08:53:33.769Z,7008
2017-04-15T08:54:33.804Z,6836
2017-04-15T08:55:33.814Z,6716
2017-04-15T08:56:33.860Z,6376
2017-04-15T08:57:33.893Z,5736
2017-04-15T08:58:33.924Z,5156
2017-04-15T08:59:33.967Z,4988
2017-04-15T09:00:33.995Z,5056
2017-04-15T09:01:34.018Z,5104
2017-04-15T09:02:34.050Z,4768
2017-04-15T09:03:34.067Z,4920
2017-04-15T09:04:34.109Z,5368
2017-04-15T09:05:34.144Z,5768
2017-04-15T09:06:34.158Z,5956
2017-04-15T09:07:34.193Z,6408
2017-04-15T09:08:34.234Z,6164
2017-04-15T09:09:34.262Z,6240
2017-04-15T09:10:34.327Z,6728
2017-04-15T09:11:34.325Z,6596
2017-04-15T09:12:34.409Z,6052
2017-04-15T09:13:34.398Z,5084
2017-04-15T09:14:34.430Z,4784
2017-04-15T09:15:34.453Z,4420
2017-04-15T09:16:34.453Z,4188
2017-04-15T09:17:34.514Z,4020
2017-04-15T09:18:34.560Z,3908
2017-04-15T09:19:34.573Z,3668
2017-04-15T09:20:34.601Z,3536
2017-04-15T09:21:34.639Z,3492
2017-04-15T09:22:34.670Z,3552
2017-04-15T09:23:34.699Z,3752
2017-04-15T09:24:34.772Z,4096
2017-04-15T09:25:34.759Z,4328
2017-04-15T09:26:34.790Z,4592
2017-04-15T09:27:34.846Z,4828
2017-04-15T09:28:34.855Z,5316
2017-04-15T09:29:34.886Z,5220
2017-04-15T09:30:34.921Z,5136
2017-04-15T09:31:34.944Z,4816
2017-04-15T09:32:35.207Z,4184
2017-04-15T09:33:35.011Z,3564
2017-04-15T09:34:35.059Z,3272
2017-04-15T09:35:35.058Z,3500
2017-04-15T09:36:35.108Z,3900
2017-04-15T09:37:35.124Z,4128
2017-04-15T09:38:35.163Z,4264
2017-04-15T09:39:35.191Z,4764
2017-04-15T09:40:35.215Z,5612
2017-04-15T09:41:35.238Z,6200
2017-04-15T09:42:35.282Z,6684
2017-04-15T09:43:35.322Z,7064
2017-04-15T09:44:35.351Z,6520
2017-04-15T09:45:35.369Z,5588
2017-04-15T09:46:35.416Z,5596
2017-04-15T09:47:35.441Z,6232
2017-04-15T09:48:35.467Z,5876
2017-04-15T09:49:35.497Z,4592
2017-04-15T09:50:35.735Z,3564
2017-04-15T09:51:35.561Z,2700
2017-04-15T09:52:35.590Z,3032
2017-04-15T09:53:35.625Z,3256
2017-04-15T09:54:35.655Z,3008
2017-04-15T09:55:35.676Z,2604
2017-04-15T09:56:35.754Z,2616
2017-04-15T09:57:35.746Z,2812
2017-04-15T09:58:35.967Z,2028
2017-04-15T09:59:35.808Z,2180
2017-04-15T10:00:35.878Z,3096
2017-04-15T10:01:35.866Z,3444
2017-04-15T10:02:36.223Z,3652
2017-04-15T10:03:35.931Z,2732
2017-04-15T10:04:35.993Z,2444
2017-04-15T10:05:35.974Z,2556
2017-04-15T10:06:36.045Z,2584
2017-04-15T10:07:36.060Z,2964
2017-04-15T10:08:36.072Z,3104
2017-04-15T10:09:36.123Z,3272
2017-04-15T10:10:36.147Z,3340
2017-04-15T10:11:36.187Z,3336
2017-04-15T10:12:36.205Z,3272
2017-04-15T10:13:36.240Z,3004
2017-04-15T10:14:36.283Z,2780
2017-04-15T10:15:36.384Z,2812
2017-04-15T10:16:36.328Z,3876
2017-04-15T10:17:36.371Z,4628
2017-04-15T10:18:36.398Z,4452
2017-04-15T10:19:36.417Z,4484
2017-04-15T10:20:36.473Z,4796
2017-04-15T10:21:36.480Z,5144
2017-04-15T10:22:36.533Z,6328
2017-04-15T10:23:36.543Z,7656
2017-04-15T10:24:36.587Z,5724
2017-04-15T10:25:36.604Z,5228
2017-04-15T10:26:36.661Z,4964
2017-04-15T10:27:36.665Z,4300
2017-04-15T10:28:36.712Z,4052
2017-04-15T10:29:36.748Z,3440
2017-04-15T10:30:36.746Z,3484
2017-04-15T10:31:36.803Z,4172
2017-04-15T10:32:36.846Z,4984
2017-04-15T10:33:36.830Z,5004
2017-04-15T10:34:36.905Z,4416
2017-04-15T10:35:37.134Z,4628
2017-04-15T10:36:36.948Z,4936
2017-04-15T10:37:37.202Z,3828
2017-04-15T10:38:36.991Z,3048
2017-04-15T10:39:37.270Z,2808
2017-04-15T10:40:37.270Z,4268
2017-04-15T10:41:37.119Z,5252
2017-04-15T10:42:37.168Z,6136
2017-04-15T10:43:37.387Z,6872
2017-04-15T10:44:37.255Z,8240
2017-04-15T10:45:37.231Z,8236
2017-04-15T10:46:37.232Z,6076
2017-04-15T10:47:37.280Z,6400
2017-04-15T10:48:37.621Z,6484
2017-04-15T10:49:37.338Z,8560
2017-04-15T10:50:37.465Z,8472
2017-04-15T10:51:37.406Z,6908
2017-04-15T10:52:37.437Z,4920
2017-04-15T10:53:37.445Z,5124
2017-04-15T10:54:37.538Z,5800
2017-04-15T10:55:37.577Z,4036
2017-04-15T10:56:37.566Z,3688
2017-04-15T10:57:37.657Z,3948
2017-04-15T10:58:37.643Z,3976
2017-04-15T10:59:37.710Z,3988
2017-04-15T11:00:37.735Z,3580
2017-04-15T11:01:37.723Z,3592
2017-04-15T11:02:37.763Z,4124
2017-04-15T11:03:37.825Z,3828
2017-04-15T11:04:37.834Z,3328
2017-04-15T11:05:37.997Z,3264
2017-04-15T11:06:37.877Z,2872
2017-04-15T11:07:38.144Z,3020
2017-04-15T11:08:37.958Z,2704
2017-04-15T11:09:37.966Z,3820
2017-04-15T11:10:38.121Z,2856
2017-04-15T11:11:38.039Z,3112
2017-04-15T11:12:38.127Z,3176
2017-04-15T11:13:38.117Z,2536
2017-04-15T11:14:38.152Z,2536
2017-04-15T11:15:38.288Z,2408
2017-04-15T11:16:38.202Z,2692
2017-04-15T11:17:38.213Z,2944
2017-04-15T11:18:38.282Z,3040
2017-04-15T11:19:38.298Z,3152
2017-04-15T11:20:38.327Z,2936
2017-04-15T11:21:38.369Z,2028
2017-04-15T11:22:38.365Z,1828
2017-04-15T11:23:38.389Z,2100
2017-04-15T11:24:38.429Z,3444
2017-04-15T11:25:38.490Z,4024
2017-04-15T11:26:38.515Z,3200
2017-04-15T11:27:38.516Z,2144
2017-04-15T11:28:38.577Z,1776
2017-04-15T11:29:38.568Z,1992
2017-04-15T11:30:38.635Z,2412
2017-04-15T11:31:38.652Z,2364
2017-04-15T11:32:38.698Z,2616
2017-04-15T11:33:38.745Z,3096
2017-04-15T11:34:38.969Z,2824
2017-04-15T11:35:38.764Z,2308
2017-04-15T11:36:38.866Z,2652
2017-04-15T11:37:38.882Z,1768
2017-04-15T11:38:38.891Z,1612
2017-04-15T11:39:38.903Z,1416
2017-04-15T11:40:38.941Z,1876
2017-04-15T11:41:38.970Z,2256
2017-04-15T11:42:38.989Z,3128
2017-04-15T11:43:39.018Z,3424
2017-04-15T11:44:39.062Z,2756
2017-04-15T11:45:39.074Z,2792
2017-04-15T11:46:39.410Z,2976
2017-04-15T11:47:39.169Z,2792
2017-04-15T11:48:39.186Z,3244
2017-04-15T11:49:39.224Z,2816
2017-04-15T11:50:39.235Z,2852
2017-04-15T11:51:39.374Z,2816
2017-04-15T11:52:39.305Z,2692
2017-04-15T11:53:39.338Z,2756
2017-04-15T11:54:39.363Z,3500
2017-04-15T11:55:39.394Z,4244
2017-04-15T11:56:39.434Z,5456
2017-04-15T11:57:39.463Z,5812
2017-04-15T11:58:39.482Z,6548
2017-04-15T11:59:39.520Z,6716
2017-04-15T12:00:39.552Z,8124
2017-04-15T12:01:39.581Z,8360
2017-04-15T12:02:39.599Z,8964
2017-04-15T12:03:39.641Z,9020
2017-04-15T12:04:39.698Z,11044
2017-04-15T12:05:39.684Z,11052
2017-04-15T12:06:39.693Z,10892
2017-04-15T12:07:39.779Z,9468
2017-04-15T12:08:39.787Z,9200
2017-04-15T12:09:39.830Z,8580
2017-04-15T12:10:41.275Z,7388
2017-04-15T12:11:39.910Z,7076
2017-04-15T12:12:39.954Z,9084
2017-04-15T12:13:39.976Z,10128
2017-04-15T12:14:39.979Z,10116
2017-04-15T12:15:40.029Z,10876
2017-04-15T12:16:40.062Z,9724
2017-04-15T12:17:40.075Z,11416
2017-04-15T12:18:40.986Z,10856
2017-04-15T12:19:40.561Z,9216
2017-04-15T12:20:40.379Z,9972
2017-04-15T12:21:40.415Z,10076
2017-04-15T12:22:40.229Z,9136
2017-04-15T12:23:40.680Z,6520
2017-04-15T12:24:40.539Z,8036
2017-04-15T12:25:40.342Z,7168
2017-04-15T12:26:40.378Z,6088
2017-04-15T12:27:40.394Z,5112
2017-04-15T12:28:40.641Z,4408
2017-04-15T12:29:40.686Z,6580
2017-04-15T12:30:40.524Z,6040
2017-04-15T12:31:40.549Z,4836
2017-04-15T12:32:40.788Z,6208
2017-04-15T12:33:40.591Z,5940
2017-04-15T12:34:40.642Z,9356
2017-04-15T12:35:40.674Z,8628
2017-04-15T12:36:40.696Z,7744
2017-04-15T12:37:40.731Z,4896
2017-04-15T12:38:40.774Z,5988
2017-04-15T12:39:40.807Z,7064
2017-04-15T12:40:40.837Z,6608
2017-04-15T12:41:40.852Z,5936
2017-04-15T12:42:40.887Z,4400
2017-04-15T12:43:40.928Z,4048
2017-04-15T12:44:40.944Z,4960
2017-04-15T12:45:40.981Z,4220
2017-04-15T12:46:41.030Z,3888
2017-04-15T12:47:41.051Z,4036
2017-04-15T12:48:41.091Z,3784
2017-04-15T12:49:41.140Z,4424
2017-04-15T12:50:41.172Z,3840
2017-04-15T12:51:41.193Z,4152
2017-04-15T12:52:41.230Z,4056
2017-04-15T12:53:41.239Z,4700
2017-04-15T12:54:41.283Z,5372
2017-04-15T12:55:41.323Z,5944
2017-04-15T12:56:41.355Z,6296
2017-04-15T12:57:41.381Z,6704
2017-04-15T12:58:41.420Z,5540
2017-04-15T12:59:41.453Z,5832
2017-04-15T13:00:41.494Z,5440
2017-04-15T13:01:41.634Z,3804
2017-04-15T13:02:41.554Z,2972
2017-04-15T13:03:41.587Z,2416
2017-04-15T13:04:41.584Z,1636
2017-04-15T13:05:41.633Z,2092
2017-04-15T13:06:41.659Z,2972
2017-04-15T13:07:41.703Z,2300
2017-04-15T13:08:41.745Z,1952
2017-04-15T13:09:41.924Z,2136
2017-04-15T13:10:41.794Z,3120
2017-04-15T13:11:41.833Z,3116
2017-04-15T13:12:41.845Z,2304
2017-04-15T13:13:41.897Z,1716
2017-04-15T13:14:41.930Z,1624
2017-04-15T13:15:41.963Z,904
2017-04-15T13:16:41.994Z,832
2017-04-15T13:17:42.083Z,1020
2017-04-15T13:18:42.051Z,1116
2017-04-15T13:19:42.085Z,1332
2017-04-15T13:20:42.104Z,1580
2017-04-15T13:21:42.145Z,1984
2017-04-15T13:22:42.180Z,2524
2017-04-15T13:23:42.219Z,2124
2017-04-15T13:24:42.227Z,1788
2017-04-15T13:25:42.421Z,1672
2017-04-15T13:26:42.324Z,1512
2017-04-15T13:27:42.346Z,1512
2017-04-15T13:28:42.356Z,1936
2017-04-15T13:29:42.411Z,2308
2017-04-15T13:30:42.425Z,2392
2017-04-15T13:31:42.449Z,2008
2017-04-15T13:32:42.501Z,2236
2017-04-15T13:33:42.524Z,2144
2017-04-15T13:34:42.549Z,1816
2017-04-15T13:35:42.591Z,1456
2017-04-15T13:36:42.617Z,1396
2017-04-15T13:37:42.640Z,1684
2017-04-15T13:38:42.645Z,2152
2017-04-15T13:39:42.703Z,2164
2017-04-15T13:40:42.738Z,1960
2017-04-15T13:41:42.763Z,2064
2017-04-15T13:42:42.991Z,1832
2017-04-15T13:43:42.827Z,2184
2017-04-15T13:44:42.850Z,2348